Dorothy Ann — WDE8761 — position and weather

sailwx.info

Track history (hours):
 
Tides and Currents Weather Stations Pressure Air Temp Water Temp Dewpoint Dewpoint Depression Visibility Wind Speed Wind Dir Waves Ship Positions

Dorothy Ann

Owner: THE INTERLAKE STEAMSHIP COMPANY, Middleburg Heights, OH. More information available from US FCC via Universal Licensing System and Coast Guard Vessel Documentation Center.

Last reported at 2017-Oct-23 02:00 UTC. Time now 2017-Oct-23 02:52 UTC.
Position N 41°42' W 082°36'.

Length 215 m; draft 6.9 m.

Type: Cargo ship. MMSI: 367409260.

Wind from 170 at 12 knots

Barometer 1019.1 mb
Air temperature 19.4 ° C
Water temperature 21.5 ° C

Date/timePositionNaut miles runAvg speedWind from/ knotsBaromVisibWave heightAir tempDewpointWater temp
2017-Oct-23 02:00N 41°42' W 082°36'7 7.5 170 / 121019.1 19.4 21.5
2017-Oct-23 01:00N 41°36' W 082°42'6 6.0 180 / 101019.1 20.1 20.9
2017-Oct-23 00:00N 41°30' W 082°42'0 0.0 170 / 71019.5 21.8 20.9
2017-Oct-22 23:00N 41°30' W 082°42'0 0.0 180 / 61019.5 22.7 20.9
2017-Oct-22 22:00N 41°30' W 082°42'0 0.0 190 / 111019.5 24.2 20.9
2017-Oct-22 21:00N 41°30' W 082°42'0 0.0 200 / 151019.5 24.9 21.3
2017-Oct-22 20:00N 41°30' W 082°42'0 0.0 190 / 121019.5 24.5 21.2
2017-Oct-22 19:00N 41°30' W 082°42'0 0.0 210 / 121019.8 24.8 21.2
2017-Oct-22 18:00N 41°30' W 082°42'0 0.0 180 / 101021.2 24.1 20.9
2017-Oct-22 17:00N 41°30' W 082°42'0 0.0 210 / 111022.2 23.1 20.8
2017-Oct-22 16:00N 41°30' W 082°42'0 0.0 190 / 111022.5 21.6 20.8
2017-Oct-22 15:00N 41°30' W 082°42'0 0.0 190 / 111023.5 19.9 20.8
2017-Oct-22 14:00N 41°30' W 082°42'0 0.0 210 / 81023.5 19.3 20.9
2017-Oct-22 13:00N 41°30' W 082°42'6 6.0 160 / 91023.2 16.6 20.7
2017-Oct-22 12:00N 41°36' W 082°42'1313.5 160 / 151022.5 16.4 21.1
2017-Oct-22 11:00N 41°36' W 082°24'9 9.0 160 / 131022.9 16.4 21.6
2017-Oct-22 10:00N 41°36' W 082°12'9 9.0 170 / 141023.2 15.9 21.7
2017-Oct-22 09:00N 41°36' W 082°00'1110.8 160 / 111023.9 16.7 21.8
2017-Oct-22 08:00N 41°30' W 081°48'4 4.5 160 / 111023.5 15.4 21.6
2017-Oct-22 07:00N 41°30' W 081°42'0 0.0 140 / 31023.9 15.1 22.7
2017-Oct-22 06:00N 41°30' W 081°42'0 0.0 100 / 21023.2 15.8 23.0
2017-Oct-22 05:00N 41°30' W 081°42'0 0.0 120 / 21023.2 16.3 23.1
2017-Oct-22 04:00N 41°30' W 081°42'0 0.0 200 / 21023.5 17.0 23.0
2017-Oct-22 03:00N 41°30' W 081°42'0 0.0 170 / 31023.5 17.6 23.0
2017-Oct-22 02:00N 41°30' W 081°42'0 0.0 150 / 41023.9 18.4 22.8
2017-Oct-22 01:00N 41°30' W 081°42'4 4.5 170 / 61024.2 18.9 22.7
2017-Oct-22 00:00N 41°30' W 081°48'1110.8 170 / 161023.5 20.6 21.9
2017-Oct-21 23:00N 41°36' W 082°00'9 9.0 170 / 161023.2 21.4 21.9
2017-Oct-21 22:00N 41°36' W 082°12'9 9.0 140 / 141022.5 22.6 21.8
2017-Oct-21 21:00N 41°36' W 082°24'9 9.0 140 / 91022.9 22.4 21.7
2017-Oct-21 20:00N 41°36' W 082°36'7 7.5 140 / 101022.9 22.3 21.4
2017-Oct-21 19:00N 41°30' W 082°42'0 0.0 160 / 41023.2 21.3 20.8
2017-Oct-21 18:00N 41°30' W 082°42'0 0.0 120 / 31023.5 20.9 20.9
2017-Oct-21 17:00N 41°30' W 082°42'0 0.0 240 / 61023.9 21.5 20.8
2017-Oct-21 16:00N 41°30' W 082°42'0 0.0 190 / 71024.5 20.0 20.6
2017-Oct-21 15:00N 41°30' W 082°42'0 0.0 200 / 61024.9 18.3 20.6
2017-Oct-21 14:00N 41°30' W 082°42'0 0.0 200 / 91025.2 16.0 20.7
2017-Oct-21 13:00N 41°30' W 082°42'0 0.0 180 / 121024.9 14.9 20.7
2017-Oct-21 12:00N 41°30' W 082°42'0 0.0 190 / 111024.2 13.9 20.7
2017-Oct-21 11:00N 41°30' W 082°42'0 0.0 190 / 121023.9 13.9 20.8
2017-Oct-21 10:00N 41°30' W 082°42'0 0.0 200 / 111023.5 14.4 20.8
2017-Oct-21 09:00N 41°30' W 082°42'0 0.0 190 / 91023.2 14.5 20.8
2017-Oct-21 08:00N 41°30' W 082°42'0 0.0 200 / 81022.9 14.3 20.7
2017-Oct-21 07:00N 41°30' W 082°42'0 0.0 200 / 81022.9 14.7 20.7
2017-Oct-21 06:00N 41°30' W 082°42'0 0.0 220 / 81022.9 15.4 20.9
2017-Oct-21 05:00N 41°30' W 082°42'0 0.0 200 / 81022.5 16.1 21.0
2017-Oct-21 04:00N 41°30' W 082°42'0 0.0 180 / 91022.5 16.3 20.9
2017-Oct-21 03:00N 41°30' W 082°42'0 0.0 210 / 101022.5 17.5 20.9
2017-Oct-21 02:00N 41°30' W 082°42'0 0.0 170 / 81022.2 18.3 21.1
2017-Oct-21 01:00N 41°30' W 082°42'7 7.5 190 / 81022.5 19.2 20.9
2017-Oct-21 00:00N 41°36' W 082°36'9 9.0 180 / 121022.2 20.0 21.8
2017-Oct-20 23:00N 41°36' W 082°24'4 4.5 140 / 101022.210.8 20.0 21.9
2017-Oct-20 22:00N 41°36' W 082°18'9 9.0 110 / 81022.5 18.7 22.0
2017-Oct-20 21:00N 41°36' W 082°06'4 4.5 090 / 71023.2 22.2 22.1
2017-Oct-20 20:00N 41°36' W 082°00'9 9.0 050 / 51023.5 18.9 22.2
2017-Oct-20 19:00N 41°36' W 081°48'7 7.5 350 / 21024.2 20.3 22.1
2017-Oct-20 18:00N 41°30' W 081°42'0 0.0 220 / 41024.9 21.7 22.1
2017-Oct-20 17:00N 41°30' W 081°42'0 0.0 140 / 71025.6 20.0 23.0
2017-Oct-20 16:00N 41°30' W 081°42'0 0.0 160 / 61026.2 19.1 23.0
2017-Oct-20 15:00N 41°30' W 081°42'0 0.0 120 / 61026.6 16.6 21.0
2017-Oct-20 14:00N 41°30' W 081°42'0 0.0 160 / 61026.9 13.0 21.2
2017-Oct-20 13:00N 41°30' W 081°42'0 0.0 150 / 21026.6 11.6 21.7
2017-Oct-20 12:00N 41°30' W 081°42'0 0.0 150 / 31025.9 9.1 22.4
2017-Oct-20 11:00N 41°30' W 081°42'0 0.0 110 / 21025.2 10.9 22.7
2017-Oct-20 10:00N 41°30' W 081°42'0 0.0 130 / 11024.9 11.0 23.4
2017-Oct-20 09:00N 41°30' W 081°42'0 0.0 270 / 11024.2 12.5 21.4
2017-Oct-20 08:00N 41°30' W 081°42'0 0.0 210 / 41023.5 13.2 21.6
2017-Oct-20 07:00N 41°30' W 081°42'0 0.0 200 / 41023.2 12.9 21.8
2017-Oct-20 06:00N 41°30' W 081°42'0 0.0 220 / 41023.2 15.1 21.7
2017-Oct-20 05:00N 41°30' W 081°42'0 0.0 350 / 61022.5 17.8 21.9
2017-Oct-20 04:00N 41°30' W 081°42'0 0.0 330 / 101022.5 18.4 21.7
2017-Oct-20 03:00N 41°30' W 081°42'0 0.0 330 / 111022.2 18.5 23.4
2017-Oct-20 02:00N 41°30' W 081°42'0 0.0 290 / 41021.8 19.4 22.9
2017-Oct-20 01:00N 41°30' W 081°42'0 0.0 280 / 61021.5 19.2 21.6
2017-Oct-20 00:00N 41°30' W 081°42'0 0.0 300 / 61021.5 20.1 21.6
2017-Oct-19 23:00N 41°30' W 081°42'0 0.0 320 / 81020.8 21.1 22.1
2017-Oct-19 22:00N 41°30' W 081°42'0 0.0 270 / 101020.1 22.2 21.9
2017-Oct-19 21:00N 41°30' W 081°42'0 0.0 260 / 101019.8 22.7 23.3
2017-Oct-19 20:00N 41°30' W 081°42'0 0.0 240 / 101020.1 22.2 23.7
2017-Oct-19 19:00N 41°30' W 081°42'0 0.0 240 / 121020.5 21.8 22.0
2017-Oct-19 18:00N 41°30' W 081°42'0 0.0 310 / 91020.8 18.2 21.7
2017-Oct-19 17:00N 41°30' W 081°42'0 0.0 290 / 111021.5 19.0 21.7
2017-Oct-19 16:00N 41°30' W 081°42'0 0.0 210 / 101021.2 18.4 21.6
2017-Oct-19 15:00N 41°30' W 081°42'0 0.0 240 / 131021.5 16.6 21.8
2017-Oct-19 14:00N 41°30' W 081°42'0 0.0 230 / 131021.5 15.7 21.6
2017-Oct-19 13:00N 41°30' W 081°42'0 0.0 200 / 151020.8 14.3 21.5
2017-Oct-19 12:00N 41°30' W 081°42'0 0.0 190 / 111020.8 13.5 21.7
2017-Oct-19 11:00N 41°30' W 081°42'0 0.0 200 / 41020.8 13.6 23.7
2017-Oct-19 10:00N 41°30' W 081°42'0 0.0 150 / 41021.2 11.1 23.2
2017-Oct-19 09:00N 41°30' W 081°42'0 0.0 150 / 41021.5 13.6 23.3
2017-Oct-19 08:00N 41°30' W 081°42'0 0.0 180 / 51021.5 14.8 23.6
2017-Oct-19 07:00N 41°30' W 081°42'0 0.0 170 / 21021.8 15.6 23.6
2017-Oct-19 06:00N 41°30' W 081°42'0 0.0 100 / 11021.8 13.6 23.5
2017-Oct-19 05:00N 41°30' W 081°42'0 0.0 130 / 41021.8 14.6 23.8
2017-Oct-19 04:00N 41°30' W 081°42'0 0.0 160 / 61021.5 14.7 22.3
2017-Oct-19 03:00N 41°30' W 081°42'0 0.0 160 / 71021.8 15.5 22.7
2017-Oct-19 02:00N 41°30' W 081°42'0 0.0 160 / 71021.8 16.0 22.6
2017-Oct-19 01:00N 41°30' W 081°42'4 4.5 170 / 81022.2 16.6 22.5
2017-Oct-19 00:00N 41°30' W 081°48'7 7.5 170 / 141021.8 17.9 21.9
2017-Oct-18 23:00N 41°36' W 081°54'9 9.0 190 / 131022.2 19.5 22.3
2017-Oct-18 22:00N 41°36' W 082°06'9 9.0 210 / 151021.8 20.7 22.2
2017-Oct-18 21:00N 41°36' W 082°18'9 9.0 210 / 151022.2 20.6 22.0
2017-Oct-18 20:00N 41°36' W 082°30'9 9.0 200 / 171022.5 20.4 21.8
2017-Oct-18 19:00N 41°36' W 082°42'6 6.0 200 / 131023.2 19.8 20.9
2017-Oct-18 18:00N 41°30' W 082°42'0 0.0 210 / 111023.9 19.1 21.0
2017-Oct-18 15:00N 41°30' W 082°42'0 0.0 210 / 71026.2 15.6 20.6
2017-Oct-18 14:00N 41°30' W 082°42'0 0.0 200 / 81026.2 13.2 20.6
2017-Oct-18 13:00N 41°30' W 082°42'0 0.0 210 / 111026.2 11.7 20.6
2017-Oct-18 12:00N 41°30' W 082°42'0 0.0 210 / 121025.9 10.8 20.6
2017-Oct-18 11:00N 41°30' W 082°42'0 0.0 210 / 111025.9 11.1 20.7
2017-Oct-18 10:00N 41°30' W 082°42'0 0.0 210 / 111025.2 11.2 20.9
2017-Oct-18 09:00N 41°30' W 082°42'0 0.0 210 / 111024.9 11.9 21.1
2017-Oct-18 08:00N 41°30' W 082°42'0 0.0 230 / 91024.5 12.6 21.2
2017-Oct-18 07:00N 41°30' W 082°42'0 0.0 230 / 81024.9 13.6 21.2
2017-Oct-18 06:00N 41°30' W 082°42'6 6.0 220 / 101024.2 13.2 21.2
2017-Oct-18 05:00N 41°36' W 082°42'1110.8 220 / 171023.5 14.3 21.6
2017-Oct-18 04:00N 41°30' W 082°30'9 9.0 230 / 201023.5 15.1 22.0
2017-Oct-18 03:00N 41°30' W 082°18'4 4.5 220 / 191023.9 15.7 22.0
2017-Oct-18 02:00N 41°30' W 082°12'0 0.0 230 / 51024.2 14.1 22.3
2017-Oct-18 01:00N 41°30' W 082°12'0 0.0 210 / 71023.5 15.4 22.3
2017-Oct-18 00:00N 41°30' W 082°12'0 0.0 210 / 61023.2 15.9 22.6
2017-Oct-17 23:00N 41°30' W 082°12'0 0.0 200 / 71022.9 18.7 22.5
2017-Oct-17 22:00N 41°30' W 082°12'0 0.0 220 / 111022.9 20.1 22.5
2017-Oct-17 21:00N 41°30' W 082°12'0 0.0 250 / 101022.9 19.1 22.3
2017-Oct-17 20:00N 41°30' W 082°12'4 4.5 240 / 91023.5 18.9 22.2
2017-Oct-17 19:00N 41°30' W 082°18'9 9.0 240 / 211023.5 17.6 22.3
2017-Oct-17 18:00N 41°30' W 082°30'9 9.0 230 / 201024.2 17.1 22.0
2017-Oct-17 17:00N 41°30' W 082°42'0 0.0 230 / 201024.9 15.9 21.6
2017-Oct-17 16:00N 41°30' W 082°42'0 0.0 240 / 161025.6 15.1 21.5
2017-Oct-17 15:00N 41°30' W 082°42'0 0.0 230 / 201025.6 13.4 21.5
2017-Oct-17 14:00N 41°30' W 082°42'0 0.0 260 / 141025.6 12.4 21.6
2017-Oct-17 13:00N 41°30' W 082°42'0 0.0 220 / 131025.9 10.4 21.5
2017-Oct-17 12:00N 41°30' W 082°42'0 0.0 220 / 151025.6 9.4 21.6
2017-Oct-17 11:00N 41°30' W 082°42'0 0.0 220 / 141025.9 9.3 21.6
2017-Oct-17 10:00N 41°30' W 082°42'0 0.0 220 / 141025.9 9.3 21.6
2017-Oct-17 09:00N 41°30' W 082°42'0 0.0 210 / 111025.6 9.7 21.6
2017-Oct-17 08:00N 41°30' W 082°42'0 0.0 220 / 111025.2 9.4 21.6
2017-Oct-17 07:00N 41°30' W 082°42'0 0.0 210 / 91025.6 9.4 21.5
2017-Oct-17 06:00N 41°30' W 082°42'0 0.0 210 / 81025.6 10.1 21.6
2017-Oct-17 05:00N 41°30' W 082°42'0 0.0 200 / 101025.2 9.9 21.7
2017-Oct-17 04:00N 41°30' W 082°42'0 0.0 190 / 101025.6 10.1 21.8
2017-Oct-17 03:00N 41°30' W 082°42'0 0.0 200 / 91025.6 10.6 21.8
2017-Oct-17 02:00N 41°30' W 082°42'6 6.0 200 / 71025.9 10.8 21.7
2017-Oct-17 01:00N 41°36' W 082°42'9 9.0 190 / 61025.6 12.4 22.2
2017-Oct-17 00:00N 41°36' W 082°30'9 9.0 230 / 31025.6 12.1 22.7
2017-Oct-16 23:00N 41°36' W 082°18'9 9.0 310 / 31025.6 11.5 22.7
2017-Oct-16 22:00N 41°36' W 082°06'9 9.0 340 / 81025.6 11.6 22.9
2017-Oct-16 21:00N 41°36' W 081°54'1110.8 300 / 121025.6 11.5 22.9
2017-Oct-16 20:00N 41°30' W 081°42'0 0.0 310 / 71025.9 11.8 24.3
2017-Oct-16 19:00N 41°30' W 081°42'0 0.0 320 / 61025.6 11.8 25.0
2017-Oct-16 18:00N 41°30' W 081°42'0 0.0 340 / 71025.6 11.4 24.9
2017-Oct-16 17:00N 41°30' W 081°42'0 0.0 340 / 81025.9 11.0 24.8
2017-Oct-16 16:00N 41°30' W 081°42'0 0.0 030 / 51025.9 11.7 24.9
2017-Oct-16 15:00N 41°30' W 081°42'0 0.0 1025.9 11.5 25.0
2017-Oct-16 14:00N 41°30' W 081°42'0 0.0 340 / 101025.2 11.6 25.0
2017-Oct-16 13:00N 41°30' W 081°42'0 0.0 290 / 51024.5 11.5 24.5
2017-Oct-16 12:00N 41°30' W 081°42'4 4.5 340 / 51023.5 11.2 23.8
2017-Oct-16 11:00N 41°30' W 081°48'7 7.5 340 / 191022.5 10.8 23.0
2017-Oct-16 10:00N 41°36' W 081°54'9 9.0 350 / 161022.5 10.4 23.0
2017-Oct-16 09:00N 41°36' W 082°06'9 9.0 360 / 161022.2 10.9 22.9
2017-Oct-16 08:00N 41°36' W 082°18'9 9.0 360 / 171021.8 11.1 22.9
2017-Oct-16 07:00N 41°36' W 082°30'4 4.5 340 / 201021.5 10.6 22.9
2017-Oct-16 06:00N 41°36' W 082°36'0 0.0 340 / 191021.2 10.9 22.5
2017-Oct-16 05:00N 41°36' W 082°36'0 0.0 340 / 201021.2 11.2 22.6
2017-Oct-16 04:00N 41°36' W 082°36'0 0.0 330 / 201020.8 11.3 22.6
2017-Oct-16 03:00N 41°36' W 082°36'0 0.0 1020.5 11.4 22.6
2017-Oct-16 02:00N 41°36' W 082°36'0 0.0 340 / 311019.1 12.4 22.7
2017-Oct-16 01:00N 41°36' W 082°36'0 0.0 330 / 311017.8 13.0 22.7
2017-Oct-16 00:00N 41°36' W 082°36'0 0.0 320 / 341016.1 14.3 22.8
2017-Oct-15 23:00N 41°36' W 082°36'0 0.0 310 / 311014.7 15.3 22.8
2017-Oct-15 22:00N 41°36' W 082°36'0 0.0 270 / 301013.4 16.0 22.9
2017-Oct-15 21:00N 41°36' W 082°36'0 0.0 280 / 301012.7 15.8 22.9
2017-Oct-15 20:00N 41°36' W 082°36'0 0.0 280 / 311011.0 17.2 22.9
2017-Oct-15 19:00N 41°36' W 082°36'0 0.0 270 / 301010.3 17.2 22.9
2017-Oct-15 18:00N 41°36' W 082°36'0 0.0 280 / 301009.3 18.2 22.9
2017-Oct-15 17:00N 41°36' W 082°36'0 0.0 240 / 361008.3 22.9 22.9
2017-Oct-15 16:00N 41°36' W 082°36'6 6.0 230 / 311007.6 23.4 22.9
2017-Oct-15 15:00N 41°42' W 082°36'7 7.5 220 / 291007.3 22.9 22.6
2017-Oct-15 14:00N 41°48' W 082°30'7 7.5 220 / 311007.6 22.0 22.5
2017-Oct-15 13:00N 41°54' W 082°36'9 8.9 210 / 291007.6 22.1 22.5
2017-Oct-15 12:00N 41°54' W 082°48'9 8.9 210 / 241007.6 20.8 22.3
2017-Oct-15 11:00N 41°54' W 083°00'7 7.5 210 / 241008.3 21.3 21.2
2017-Oct-15 10:00N 42°00' W 083°06'1212.0 210 / 231008.6 20.3 20.9
2017-Oct-15 09:00N 42°12' W 083°06'6 6.0 200 / 181009.1 22.2 20.7
2017-Oct-15 08:00N 42°18' W 083°06'1110.7 200 / 121009.4 19.9 20.7
2017-Oct-15 07:00N 42°24' W 082°54'1110.7 230 / 161010.1 19.6 20.1
2017-Oct-15 06:00N 42°30' W 082°42'7 7.5 160 / 161010.4 18.8 20.8
2017-Oct-15 05:00N 42°36' W 082°36'7 7.4 120 / 101013.0 16.6 20.8
2017-Oct-15 04:00N 42°42' W 082°30'1212.0 120 / 141014.0 16.1 20.7
2017-Oct-15 03:00N 42°54' W 082°30'7 7.4 180 / 131016.0 15.9 20.7
2017-Oct-15 02:00N 43°00' W 082°24'1212.0 170 / 181014.7 16.1 20.8
2017-Oct-15 01:00N 43°12' W 082°24'6 6.0 160 / 221015.4 16.4 20.9
2017-Oct-15 00:00N 43°18' W 082°24'1212.0 160 / 221016.4 16.5 21.2
2017-Oct-14 23:00N 43°30' W 082°24'6 6.0 170 / 271016.7 16.4 21.3
2017-Oct-14 22:00N 43°36' W 082°24'1212.0 140 / 211017.7 16.5 21.4
2017-Oct-14 21:00N 43°48' W 082°24'6 6.0 100 / 171018.8 16.1 21.4
2017-Oct-14 20:00N 43°54' W 082°24'1312.8 100 / 171019.4 15.6 21.2
2017-Oct-14 19:00N 44°06' W 082°30'7 7.4 070 / 141020.8 14.6 20.9
2017-Oct-14 18:00N 44°12' W 082°36'50 9.9 060 / 141021.8 15.1 19.5
2017-Oct-14 13:00N 45°00' W 082°54'7 7.3 030 / 161023.8 13.4 20.2
2017-Oct-14 12:00N 45°06' W 083°00'1312.7 020 / 151023.8 13.2 19.9
2017-Oct-14 11:00N 45°18' W 083°06'7 7.3 010 / 171023.5 12.9 20.0
2017-Oct-14 10:00N 45°24' W 083°12'911.7 010 / 171022.8 13.2 19.6
2017-Oct-14 09:15N 45°23' W 083°24'2 8.9
2017-Oct-14 09:00N 45°24' W 083°27'2195.2
2017-Oct-14 09:00N 45°24' W 083°24'713.7 360 / 151022.5 13.3 19.4
2017-Oct-14 08:30N 45°24' W 083°34'4 8.8
2017-Oct-14 08:00N 45°25' W 083°40'3302.5
2017-Oct-14 08:00N 45°24' W 083°36'714.4 020 / 131022.1 13.6 18.0
2017-Oct-14 07:30N 45°25' W 083°46'1 1.8
2017-Oct-14 07:00N 45°25' W 083°47'183.8
2017-Oct-14 07:00N 45°24' W 083°48'1 2.0 330 / 151021.8 13.0 10.2
2017-Oct-14 06:30N 45°25' W 083°47'0 0.0
2017-Oct-14 06:00N 45°25' W 083°47'165.5
2017-Oct-14 06:00N 45°24' W 083°48'1 2.0 300 / 81021.5 13.9 10.4
2017-Oct-14 05:30N 45°25' W 083°47'0 0.1
2017-Oct-14 05:00N 45°25' W 083°47'198.8
2017-Oct-14 05:00N 45°24' W 083°48'1 2.0 260 / 31021.1 14.3 10.8
2017-Oct-14 04:30N 45°25' W 083°47'0 0.0
2017-Oct-14 04:00N 45°25' W 083°47'198.0
2017-Oct-14 04:00N 45°24' W 083°48'1 2.0 290 / 41021.1 14.6 10.6
2017-Oct-14 03:30N 45°25' W 083°47'0 0.1
2017-Oct-14 03:00N 45°25' W 083°47'1102.9
2017-Oct-14 03:00N 45°24' W 083°48'1 2.1 250 / 51020.8 15.1 10.2
2017-Oct-14 02:30N 45°25' W 083°47'0 0.0
2017-Oct-14 02:00N 45°25' W 083°47'180.5
2017-Oct-14 02:00N 45°24' W 083°48'1 1.5 290 / 81020.8 15.4 10.1
2017-Oct-14 01:22N 45°25' W 083°47'1 2.6
2017-Oct-14 01:00N 45°24' W 083°48'210.1 300 / 41019.8 15.8 10.6
2017-Oct-14 00:49N 45°25' W 083°46'1 2.6
2017-Oct-14 00:27N 45°26' W 083°47'2 4.6
2017-Oct-14 00:00N 45°24' W 083°48'2504.9 300 / 71019.8 15.7 12.2
2017-Oct-13 23:59N 45°26' W 083°47'0 0.1
2017-Oct-13 23:20N 45°26' W 083°47'0 0.2
2017-Oct-13 23:00N 45°26' W 083°47'2177.4
2017-Oct-13 23:00N 45°24' W 083°48'2 4.5 270 / 61019.4 17.0 12.3
2017-Oct-13 22:30N 45°26' W 083°47'0 0.0
2017-Oct-13 22:00N 45°26' W 083°47'2144.5
2017-Oct-13 22:00N 45°24' W 083°48'2 4.6 220 / 61018.8 17.3 12.5
2017-Oct-13 21:30N 45°26' W 083°47'0 0.0
2017-Oct-13 21:00N 45°26' W 083°47'2241.6
2017-Oct-13 21:00N 45°24' W 083°48'2 4.6 250 / 121018.8 17.4 12.4
2017-Oct-13 20:30N 45°26' W 083°47'0 0.0
2017-Oct-13 20:00N 45°26' W 083°47'2144.5
2017-Oct-13 20:00N 45°24' W 083°48'2 4.5 250 / 141018.8 17.4 12.4
2017-Oct-13 19:30N 45°26' W 083°47'0 0.0
2017-Oct-13 19:00N 45°26' W 083°47'2141.0
2017-Oct-13 19:00N 45°24' W 083°48'2 4.5 250 / 111018.8 16.7 12.6
2017-Oct-13 18:30N 45°26' W 083°47'0 0.1
2017-Oct-13 18:00N 45°26' W 083°47'2177.9
2017-Oct-13 18:00N 45°24' W 083°48'2 4.5 230 / 111018.8 16.5 12.8
2017-Oct-13 17:30N 45°26' W 083°47'0 0.0
2017-Oct-13 17:00N 45°26' W 083°47'2176.8
2017-Oct-13 17:00N 45°24' W 083°48'2 4.5 240 / 121019.4 16.1 12.7
2017-Oct-13 16:30N 45°26' W 083°47'2 3.7
2017-Oct-13 16:00N 45°28' W 083°48'2138.1
2017-Oct-13 16:00N 45°30' W 083°48'3 5.8 250 / 181019.1 16.1 16.4
2017-Oct-13 15:30N 45°32' W 083°51'5 9.2
2017-Oct-13 15:00N 45°36' W 083°55'037.3
2017-Oct-13 15:00N 45°36' W 083°54'5 9.6 220 / 151019.1 14.3 19.2
2017-Oct-13 14:28N 45°40' W 083°59'2 4.8
2017-Oct-13 14:00N 45°42' W 084°00'7 7.3 210 / 161019.1 13.4 19.0
2017-Oct-13 13:00N 45°48' W 084°06'818.8 220 / 191018.8 13.6 18.5
2017-Oct-13 12:33N 45°55' W 084°12'2 9.0
2017-Oct-13 12:23N 45°56' W 084°13'512.5
2017-Oct-13 12:00N 46°00' W 084°18'0 0.0 200 / 111018.8 13.6 16.9
2017-Oct-13 11:00N 46°00' W 084°18'0 0.0 210 / 81019.1 13.3 17.3
2017-Oct-13 10:00N 46°00' W 084°18'0 0.0 210 / 101019.1 13.2 17.2
2017-Oct-13 09:00N 46°00' W 084°18'3 5.4 200 / 81019.1 13.0 16.8
2017-Oct-13 08:29N 45°58' W 084°15'5 9.6
2017-Oct-13 08:00N 45°54' W 084°12'111.1 200 / 131019.8 13.3 18.5
2017-Oct-13 07:56N 45°54' W 084°11'7 7.5
2017-Oct-13 07:00N 45°48' W 084°06'1111.8 210 / 141020.1 13.4 19.0
2017-Oct-13 06:06N 45°42' W 083°54'1 9.5
2017-Oct-13 06:00N 45°41' W 083°53'190.0
2017-Oct-13 06:00N 45°42' W 083°54'612.1 190 / 131020.8 13.5 19.0
2017-Oct-13 05:30N 45°38' W 083°48'5 9.7
2017-Oct-13 05:00N 45°34' W 083°43'2194.3
2017-Oct-13 05:00N 45°36' W 083°42'611.9 190 / 121021.1 13.5 19.5
2017-Oct-13 04:30N 45°31' W 083°38'510.1
2017-Oct-13 04:00N 45°27' W 083°33'3364.6
2017-Oct-13 04:00N 45°30' W 083°36'917.6 190 / 101021.1 13.7 19.6
2017-Oct-13 03:30N 45°23' W 083°28'612.0
2017-Oct-13 03:00N 45°18' W 083°24'1010.4 170 / 181021.1 14.5 19.2
2017-Oct-13 02:00N 45°12' W 083°12'   170 / 171021.8 14.6 19.5
Track history (hours):
 
Tides and Currents Weather Stations Pressure Air Temp Water Temp Dewpoint Dewpoint Depression Visibility Wind Speed Wind Dir Waves Ship Positions

Dorothy Ann

Owner: THE INTERLAKE STEAMSHIP COMPANY, Middleburg Heights, OH. More information available from US FCC via Universal Licensing System and Coast Guard Vessel Documentation Center.

Last reported at 2017-Oct-23 02:00 UTC. Time now 2017-Oct-23 02:52 UTC.
Position N 41°42' W 082°36'.

Length 215 m; draft 6.9 m.

Type: Cargo ship. MMSI: 367409260.

Wind from 170 at 12 knots

Barometer 1019.1 mb
Air temperature 19.4 ° C
Water temperature 21.5 ° C

Date/timePositionNaut miles runAvg speedWind from/ knotsBaromVisibWave heightAir tempDewpointWater temp
2017-Oct-23 02:00N 41°42' W 082°36'7 7.5 170 / 121019.1 19.4 21.5
2017-Oct-23 01:00N 41°36' W 082°42'6 6.0 180 / 101019.1 20.1 20.9
2017-Oct-23 00:00N 41°30' W 082°42'0 0.0 170 / 71019.5 21.8 20.9
2017-Oct-22 23:00N 41°30' W 082°42'0 0.0 180 / 61019.5 22.7 20.9
2017-Oct-22 22:00N 41°30' W 082°42'0 0.0 190 / 111019.5 24.2 20.9
2017-Oct-22 21:00N 41°30' W 082°42'0 0.0 200 / 151019.5 24.9 21.3
2017-Oct-22 20:00N 41°30' W 082°42'0 0.0 190 / 121019.5 24.5 21.2
2017-Oct-22 19:00N 41°30' W 082°42'0 0.0 210 / 121019.8 24.8 21.2
2017-Oct-22 18:00N 41°30' W 082°42'0 0.0 180 / 101021.2 24.1 20.9
2017-Oct-22 17:00N 41°30' W 082°42'0 0.0 210 / 111022.2 23.1 20.8
2017-Oct-22 16:00N 41°30' W 082°42'0 0.0 190 / 111022.5 21.6 20.8
2017-Oct-22 15:00N 41°30' W 082°42'0 0.0 190 / 111023.5 19.9 20.8
2017-Oct-22 14:00N 41°30' W 082°42'0 0.0 210 / 81023.5 19.3 20.9
2017-Oct-22 13:00N 41°30' W 082°42'6 6.0 160 / 91023.2 16.6 20.7
2017-Oct-22 12:00N 41°36' W 082°42'1313.5 160 / 151022.5 16.4 21.1
2017-Oct-22 11:00N 41°36' W 082°24'9 9.0 160 / 131022.9 16.4 21.6
2017-Oct-22 10:00N 41°36' W 082°12'9 9.0 170 / 141023.2 15.9 21.7
2017-Oct-22 09:00N 41°36' W 082°00'1110.8 160 / 111023.9 16.7 21.8
2017-Oct-22 08:00N 41°30' W 081°48'4 4.5 160 / 111023.5 15.4 21.6
2017-Oct-22 07:00N 41°30' W 081°42'0 0.0 140 / 31023.9 15.1 22.7
2017-Oct-22 06:00N 41°30' W 081°42'0 0.0 100 / 21023.2 15.8 23.0
2017-Oct-22 05:00N 41°30' W 081°42'0 0.0 120 / 21023.2 16.3 23.1
2017-Oct-22 04:00N 41°30' W 081°42'0 0.0 200 / 21023.5 17.0 23.0
2017-Oct-22 03:00N 41°30' W 081°42'0 0.0 170 / 31023.5 17.6 23.0
2017-Oct-22 02:00N 41°30' W 081°42'0 0.0 150 / 41023.9 18.4 22.8
2017-Oct-22 01:00N 41°30' W 081°42'4 4.5 170 / 61024.2 18.9 22.7
2017-Oct-22 00:00N 41°30' W 081°48'1110.8 170 / 161023.5 20.6 21.9
2017-Oct-21 23:00N 41°36' W 082°00'9 9.0 170 / 161023.2 21.4 21.9
2017-Oct-21 22:00N 41°36' W 082°12'9 9.0 140 / 141022.5 22.6 21.8
2017-Oct-21 21:00N 41°36' W 082°24'9 9.0 140 / 91022.9 22.4 21.7
2017-Oct-21 20:00N 41°36' W 082°36'7 7.5 140 / 101022.9 22.3 21.4
2017-Oct-21 19:00N 41°30' W 082°42'0 0.0 160 / 41023.2 21.3 20.8
2017-Oct-21 18:00N 41°30' W 082°42'0 0.0 120 / 31023.5 20.9 20.9
2017-Oct-21 17:00N 41°30' W 082°42'0 0.0 240 / 61023.9 21.5 20.8
2017-Oct-21 16:00N 41°30' W 082°42'0 0.0 190 / 71024.5 20.0 20.6
2017-Oct-21 15:00N 41°30' W 082°42'0 0.0 200 / 61024.9 18.3 20.6
2017-Oct-21 14:00N 41°30' W 082°42'0 0.0 200 / 91025.2 16.0 20.7
2017-Oct-21 13:00N 41°30' W 082°42'0 0.0 180 / 121024.9 14.9 20.7
2017-Oct-21 12:00N 41°30' W 082°42'0 0.0 190 / 111024.2 13.9 20.7
2017-Oct-21 11:00N 41°30' W 082°42'0 0.0 190 / 121023.9 13.9 20.8
2017-Oct-21 10:00N 41°30' W 082°42'0 0.0 200 / 111023.5 14.4 20.8
2017-Oct-21 09:00N 41°30' W 082°42'0 0.0 190 / 91023.2 14.5 20.8
2017-Oct-21 08:00N 41°30' W 082°42'0 0.0 200 / 81022.9 14.3 20.7
2017-Oct-21 07:00N 41°30' W 082°42'0 0.0 200 / 81022.9 14.7 20.7
2017-Oct-21 06:00N 41°30' W 082°42'0 0.0 220 / 81022.9 15.4 20.9
2017-Oct-21 05:00N 41°30' W 082°42'0 0.0 200 / 81022.5 16.1 21.0
2017-Oct-21 04:00N 41°30' W 082°42'0 0.0 180 / 91022.5 16.3 20.9
2017-Oct-21 03:00N 41°30' W 082°42'0 0.0 210 / 101022.5 17.5 20.9
2017-Oct-21 02:00N 41°30' W 082°42'0 0.0 170 / 81022.2 18.3 21.1
2017-Oct-21 01:00N 41°30' W 082°42'7 7.5 190 / 81022.5 19.2 20.9
2017-Oct-21 00:00N 41°36' W 082°36'9 9.0 180 / 121022.2 20.0 21.8
2017-Oct-20 23:00N 41°36' W 082°24'4 4.5 140 / 101022.210.8 20.0 21.9
2017-Oct-20 22:00N 41°36' W 082°18'9 9.0 110 / 81022.5 18.7 22.0
2017-Oct-20 21:00N 41°36' W 082°06'4 4.5 090 / 71023.2 22.2 22.1
2017-Oct-20 20:00N 41°36' W 082°00'9 9.0 050 / 51023.5 18.9 22.2
2017-Oct-20 19:00N 41°36' W 081°48'7 7.5 350 / 21024.2 20.3 22.1
2017-Oct-20 18:00N 41°30' W 081°42'0 0.0 220 / 41024.9 21.7 22.1
2017-Oct-20 17:00N 41°30' W 081°42'0 0.0 140 / 71025.6 20.0 23.0
2017-Oct-20 16:00N 41°30' W 081°42'0 0.0 160 / 61026.2 19.1 23.0
2017-Oct-20 15:00N 41°30' W 081°42'0 0.0 120 / 61026.6 16.6 21.0
2017-Oct-20 14:00N 41°30' W 081°42'0 0.0 160 / 61026.9 13.0 21.2
2017-Oct-20 13:00N 41°30' W 081°42'0 0.0 150 / 21026.6 11.6 21.7
2017-Oct-20 12:00N 41°30' W 081°42'0 0.0 150 / 31025.9 9.1 22.4
2017-Oct-20 11:00N 41°30' W 081°42'0 0.0 110 / 21025.2 10.9 22.7
2017-Oct-20 10:00N 41°30' W 081°42'0 0.0 130 / 11024.9 11.0 23.4
2017-Oct-20 09:00N 41°30' W 081°42'0 0.0 270 / 11024.2 12.5 21.4
2017-Oct-20 08:00N 41°30' W 081°42'0 0.0 210 / 41023.5 13.2 21.6
2017-Oct-20 07:00N 41°30' W 081°42'0 0.0 200 / 41023.2 12.9 21.8
2017-Oct-20 06:00N 41°30' W 081°42'0 0.0 220 / 41023.2 15.1 21.7
2017-Oct-20 05:00N 41°30' W 081°42'0 0.0 350 / 61022.5 17.8 21.9
2017-Oct-20 04:00N 41°30' W 081°42'0 0.0 330 / 101022.5 18.4 21.7
2017-Oct-20 03:00N 41°30' W 081°42'0 0.0 330 / 111022.2 18.5 23.4
2017-Oct-20 02:00N 41°30' W 081°42'0 0.0 290 / 41021.8 19.4 22.9
2017-Oct-20 01:00N 41°30' W 081°42'0 0.0 280 / 61021.5 19.2 21.6
2017-Oct-20 00:00N 41°30' W 081°42'0 0.0 300 / 61021.5 20.1 21.6
2017-Oct-19 23:00N 41°30' W 081°42'0 0.0 320 / 81020.8 21.1 22.1
2017-Oct-19 22:00N 41°30' W 081°42'0 0.0 270 / 101020.1 22.2 21.9
2017-Oct-19 21:00N 41°30' W 081°42'0 0.0 260 / 101019.8 22.7 23.3
2017-Oct-19 20:00N 41°30' W 081°42'0 0.0 240 / 101020.1 22.2 23.7
2017-Oct-19 19:00N 41°30' W 081°42'0 0.0 240 / 121020.5 21.8 22.0
2017-Oct-19 18:00N 41°30' W 081°42'0 0.0 310 / 91020.8 18.2 21.7
2017-Oct-19 17:00N 41°30' W 081°42'0 0.0 290 / 111021.5 19.0 21.7
2017-Oct-19 16:00N 41°30' W 081°42'0 0.0 210 / 101021.2 18.4 21.6
2017-Oct-19 15:00N 41°30' W 081°42'0 0.0 240 / 131021.5 16.6 21.8
2017-Oct-19 14:00N 41°30' W 081°42'0 0.0 230 / 131021.5 15.7 21.6
2017-Oct-19 13:00N 41°30' W 081°42'0 0.0 200 / 151020.8 14.3 21.5
2017-Oct-19 12:00N 41°30' W 081°42'0 0.0 190 / 111020.8 13.5 21.7
2017-Oct-19 11:00N 41°30' W 081°42'0 0.0 200 / 41020.8 13.6 23.7
2017-Oct-19 10:00N 41°30' W 081°42'0 0.0 150 / 41021.2 11.1 23.2
2017-Oct-19 09:00N 41°30' W 081°42'0 0.0 150 / 41021.5 13.6 23.3
2017-Oct-19 08:00N 41°30' W 081°42'0 0.0 180 / 51021.5 14.8 23.6
2017-Oct-19 07:00N 41°30' W 081°42'0 0.0 170 / 21021.8 15.6 23.6
2017-Oct-19 06:00N 41°30' W 081°42'0 0.0 100 / 11021.8 13.6 23.5
2017-Oct-19 05:00N 41°30' W 081°42'0 0.0 130 / 41021.8 14.6 23.8
2017-Oct-19 04:00N 41°30' W 081°42'0 0.0 160 / 61021.5 14.7 22.3
2017-Oct-19 03:00N 41°30' W 081°42'0 0.0 160 / 71021.8 15.5 22.7
2017-Oct-19 02:00N 41°30' W 081°42'0 0.0 160 / 71021.8 16.0 22.6
2017-Oct-19 01:00N 41°30' W 081°42'4 4.5 170 / 81022.2 16.6 22.5
2017-Oct-19 00:00N 41°30' W 081°48'7 7.5 170 / 141021.8 17.9 21.9
2017-Oct-18 23:00N 41°36' W 081°54'9 9.0 190 / 131022.2 19.5 22.3
2017-Oct-18 22:00N 41°36' W 082°06'9 9.0 210 / 151021.8 20.7 22.2
2017-Oct-18 21:00N 41°36' W 082°18'9 9.0 210 / 151022.2 20.6 22.0
2017-Oct-18 20:00N 41°36' W 082°30'9 9.0 200 / 171022.5 20.4 21.8
2017-Oct-18 19:00N 41°36' W 082°42'6 6.0 200 / 131023.2 19.8 20.9
2017-Oct-18 18:00N 41°30' W 082°42'0 0.0 210 / 111023.9 19.1 21.0
2017-Oct-18 15:00N 41°30' W 082°42'0 0.0 210 / 71026.2 15.6 20.6
2017-Oct-18 14:00N 41°30' W 082°42'0 0.0 200 / 81026.2 13.2 20.6
2017-Oct-18 13:00N 41°30' W 082°42'0 0.0 210 / 111026.2 11.7 20.6
2017-Oct-18 12:00N 41°30' W 082°42'0 0.0 210 / 121025.9 10.8 20.6
2017-Oct-18 11:00N 41°30' W 082°42'0 0.0 210 / 111025.9 11.1 20.7
2017-Oct-18 10:00N 41°30' W 082°42'0 0.0 210 / 111025.2 11.2 20.9
2017-Oct-18 09:00N 41°30' W 082°42'0 0.0 210 / 111024.9 11.9 21.1
2017-Oct-18 08:00N 41°30' W 082°42'0 0.0 230 / 91024.5 12.6 21.2
2017-Oct-18 07:00N 41°30' W 082°42'0 0.0 230 / 81024.9 13.6 21.2
2017-Oct-18 06:00N 41°30' W 082°42'6 6.0 220 / 101024.2 13.2 21.2
2017-Oct-18 05:00N 41°36' W 082°42'1110.8 220 / 171023.5 14.3 21.6
2017-Oct-18 04:00N 41°30' W 082°30'9 9.0 230 / 201023.5 15.1 22.0
2017-Oct-18 03:00N 41°30' W 082°18'4 4.5 220 / 191023.9 15.7 22.0
2017-Oct-18 02:00N 41°30' W 082°12'0 0.0 230 / 51024.2 14.1 22.3
2017-Oct-18 01:00N 41°30' W 082°12'0 0.0 210 / 71023.5 15.4 22.3
2017-Oct-18 00:00N 41°30' W 082°12'0 0.0 210 / 61023.2 15.9 22.6
2017-Oct-17 23:00N 41°30' W 082°12'0 0.0 200 / 71022.9 18.7 22.5
2017-Oct-17 22:00N 41°30' W 082°12'0 0.0 220 / 111022.9 20.1 22.5
2017-Oct-17 21:00N 41°30' W 082°12'0 0.0 250 / 101022.9 19.1 22.3
2017-Oct-17 20:00N 41°30' W 082°12'4 4.5 240 / 91023.5 18.9 22.2
2017-Oct-17 19:00N 41°30' W 082°18'9 9.0 240 / 211023.5 17.6 22.3
2017-Oct-17 18:00N 41°30' W 082°30'9 9.0 230 / 201024.2 17.1 22.0
2017-Oct-17 17:00N 41°30' W 082°42'0 0.0 230 / 201024.9 15.9 21.6
2017-Oct-17 16:00N 41°30' W 082°42'0 0.0 240 / 161025.6 15.1 21.5
2017-Oct-17 15:00N 41°30' W 082°42'0 0.0 230 / 201025.6 13.4 21.5
2017-Oct-17 14:00N 41°30' W 082°42'0 0.0 260 / 141025.6 12.4 21.6
2017-Oct-17 13:00N 41°30' W 082°42'0 0.0 220 / 131025.9 10.4 21.5
2017-Oct-17 12:00N 41°30' W 082°42'0 0.0 220 / 151025.6 9.4 21.6
2017-Oct-17 11:00N 41°30' W 082°42'0 0.0 220 / 141025.9 9.3 21.6
2017-Oct-17 10:00N 41°30' W 082°42'0 0.0 220 / 141025.9 9.3 21.6
2017-Oct-17 09:00N 41°30' W 082°42'0 0.0 210 / 111025.6 9.7 21.6
2017-Oct-17 08:00N 41°30' W 082°42'0 0.0 220 / 111025.2 9.4 21.6
2017-Oct-17 07:00N 41°30' W 082°42'0 0.0 210 / 91025.6 9.4 21.5
2017-Oct-17 06:00N 41°30' W 082°42'0 0.0 210 / 81025.6 10.1 21.6
2017-Oct-17 05:00N 41°30' W 082°42'0 0.0 200 / 101025.2 9.9 21.7
2017-Oct-17 04:00N 41°30' W 082°42'0 0.0 190 / 101025.6 10.1 21.8
2017-Oct-17 03:00N 41°30' W 082°42'0 0.0 200 / 91025.6 10.6 21.8
2017-Oct-17 02:00N 41°30' W 082°42'6 6.0 200 / 71025.9 10.8 21.7
2017-Oct-17 01:00N 41°36' W 082°42'9 9.0 190 / 61025.6 12.4 22.2
2017-Oct-17 00:00N 41°36' W 082°30'9 9.0 230 / 31025.6 12.1 22.7
2017-Oct-16 23:00N 41°36' W 082°18'9 9.0 310 / 31025.6 11.5 22.7
2017-Oct-16 22:00N 41°36' W 082°06'9 9.0 340 / 81025.6 11.6 22.9
2017-Oct-16 21:00N 41°36' W 081°54'1110.8 300 / 121025.6 11.5 22.9
2017-Oct-16 20:00N 41°30' W 081°42'0 0.0 310 / 71025.9 11.8 24.3
2017-Oct-16 19:00N 41°30' W 081°42'0 0.0 320 / 61025.6 11.8 25.0
2017-Oct-16 18:00N 41°30' W 081°42'0 0.0 340 / 71025.6 11.4 24.9
2017-Oct-16 17:00N 41°30' W 081°42'0 0.0 340 / 81025.9 11.0 24.8
2017-Oct-16 16:00N 41°30' W 081°42'0 0.0 030 / 51025.9 11.7 24.9
2017-Oct-16 15:00N 41°30' W 081°42'0 0.0 1025.9 11.5 25.0
2017-Oct-16 14:00N 41°30' W 081°42'0 0.0 340 / 101025.2 11.6 25.0
2017-Oct-16 13:00N 41°30' W 081°42'0 0.0 290 / 51024.5 11.5 24.5
2017-Oct-16 12:00N 41°30' W 081°42'4 4.5 340 / 51023.5 11.2 23.8
2017-Oct-16 11:00N 41°30' W 081°48'7 7.5 340 / 191022.5 10.8 23.0
2017-Oct-16 10:00N 41°36' W 081°54'9 9.0 350 / 161022.5 10.4 23.0
2017-Oct-16 09:00N 41°36' W 082°06'9 9.0 360 / 161022.2 10.9 22.9
2017-Oct-16 08:00N 41°36' W 082°18'9 9.0 360 / 171021.8 11.1 22.9
2017-Oct-16 07:00N 41°36' W 082°30'4 4.5 340 / 201021.5 10.6 22.9
2017-Oct-16 06:00N 41°36' W 082°36'0 0.0 340 / 191021.2 10.9 22.5
2017-Oct-16 05:00N 41°36' W 082°36'0 0.0 340 / 201021.2 11.2 22.6
2017-Oct-16 04:00N 41°36' W 082°36'0 0.0 330 / 201020.8 11.3 22.6
2017-Oct-16 03:00N 41°36' W 082°36'0 0.0 1020.5 11.4 22.6
2017-Oct-16 02:00N 41°36' W 082°36'0 0.0 340 / 311019.1 12.4 22.7
2017-Oct-16 01:00N 41°36' W 082°36'0 0.0 330 / 311017.8 13.0 22.7
2017-Oct-16 00:00N 41°36' W 082°36'0 0.0 320 / 341016.1 14.3 22.8
2017-Oct-15 23:00N 41°36' W 082°36'0 0.0 310 / 311014.7 15.3 22.8
2017-Oct-15 22:00N 41°36' W 082°36'0 0.0 270 / 301013.4 16.0 22.9
2017-Oct-15 21:00N 41°36' W 082°36'0 0.0 280 / 301012.7 15.8 22.9
2017-Oct-15 20:00N 41°36' W 082°36'0 0.0 280 / 311011.0 17.2 22.9
2017-Oct-15 19:00N 41°36' W 082°36'0 0.0 270 / 301010.3 17.2 22.9
2017-Oct-15 18:00N 41°36' W 082°36'0 0.0 280 / 301009.3 18.2 22.9
2017-Oct-15 17:00N 41°36' W 082°36'0 0.0 240 / 361008.3 22.9 22.9
2017-Oct-15 16:00N 41°36' W 082°36'6 6.0 230 / 311007.6 23.4 22.9
2017-Oct-15 15:00N 41°42' W 082°36'7 7.5 220 / 291007.3 22.9 22.6
2017-Oct-15 14:00N 41°48' W 082°30'7 7.5 220 / 311007.6 22.0 22.5
2017-Oct-15 13:00N 41°54' W 082°36'9 8.9 210 / 291007.6 22.1 22.5
2017-Oct-15 12:00N 41°54' W 082°48'9 8.9 210 / 241007.6 20.8 22.3
2017-Oct-15 11:00N 41°54' W 083°00'7 7.5 210 / 241008.3 21.3 21.2
2017-Oct-15 10:00N 42°00' W 083°06'1212.0 210 / 231008.6 20.3 20.9
2017-Oct-15 09:00N 42°12' W 083°06'6 6.0 200 / 181009.1 22.2 20.7
2017-Oct-15 08:00N 42°18' W 083°06'1110.7 200 / 121009.4 19.9 20.7
2017-Oct-15 07:00N 42°24' W 082°54'1110.7 230 / 161010.1 19.6 20.1
2017-Oct-15 06:00N 42°30' W 082°42'7 7.5 160 / 161010.4 18.8 20.8
2017-Oct-15 05:00N 42°36' W 082°36'7 7.4 120 / 101013.0 16.6 20.8
2017-Oct-15 04:00N 42°42' W 082°30'1212.0 120 / 141014.0 16.1 20.7
2017-Oct-15 03:00N 42°54' W 082°30'7 7.4 180 / 131016.0 15.9 20.7
2017-Oct-15 02:00N 43°00' W 082°24'1212.0 170 / 181014.7 16.1 20.8
2017-Oct-15 01:00N 43°12' W 082°24'6 6.0 160 / 221015.4 16.4 20.9
2017-Oct-15 00:00N 43°18' W 082°24'1212.0 160 / 221016.4 16.5 21.2
2017-Oct-14 23:00N 43°30' W 082°24'6 6.0 170 / 271016.7 16.4 21.3
2017-Oct-14 22:00N 43°36' W 082°24'1212.0 140 / 211017.7 16.5 21.4
2017-Oct-14 21:00N 43°48' W 082°24'6 6.0 100 / 171018.8 16.1 21.4
2017-Oct-14 20:00N 43°54' W 082°24'1312.8 100 / 171019.4 15.6 21.2
2017-Oct-14 19:00N 44°06' W 082°30'7 7.4 070 / 141020.8 14.6 20.9
2017-Oct-14 18:00N 44°12' W 082°36'50 9.9 060 / 141021.8 15.1 19.5
2017-Oct-14 13:00N 45°00' W 082°54'7 7.3 030 / 161023.8 13.4 20.2
2017-Oct-14 12:00N 45°06' W 083°00'1312.7 020 / 151023.8 13.2 19.9
2017-Oct-14 11:00N 45°18' W 083°06'7 7.3 010 / 171023.5 12.9 20.0
2017-Oct-14 10:00N 45°24' W 083°12'911.7 010 / 171022.8 13.2 19.6
2017-Oct-14 09:15N 45°23' W 083°24'2 8.9
2017-Oct-14 09:00N 45°24' W 083°27'2195.2
2017-Oct-14 09:00N 45°24' W 083°24'713.7 360 / 151022.5 13.3 19.4
2017-Oct-14 08:30N 45°24' W 083°34'4 8.8
2017-Oct-14 08:00N 45°25' W 083°40'3302.5
2017-Oct-14 08:00N 45°24' W 083°36'714.4 020 / 131022.1 13.6 18.0
2017-Oct-14 07:30N 45°25' W 083°46'1 1.8
2017-Oct-14 07:00N 45°25' W 083°47'183.8
2017-Oct-14 07:00N 45°24' W 083°48'1 2.0 330 / 151021.8 13.0 10.2
2017-Oct-14 06:30N 45°25' W 083°47'0 0.0
2017-Oct-14 06:00N 45°25' W 083°47'165.5
2017-Oct-14 06:00N 45°24' W 083°48'1 2.0 300 / 81021.5 13.9 10.4
2017-Oct-14 05:30N 45°25' W 083°47'0 0.1
2017-Oct-14 05:00N 45°25' W 083°47'198.8
2017-Oct-14 05:00N 45°24' W 083°48'1 2.0 260 / 31021.1 14.3 10.8
2017-Oct-14 04:30N 45°25' W 083°47'0 0.0
2017-Oct-14 04:00N 45°25' W 083°47'198.0
2017-Oct-14 04:00N 45°24' W 083°48'1 2.0 290 / 41021.1 14.6 10.6
2017-Oct-14 03:30N 45°25' W 083°47'0 0.1
2017-Oct-14 03:00N 45°25' W 083°47'1102.9
2017-Oct-14 03:00N 45°24' W 083°48'1 2.1 250 / 51020.8 15.1 10.2
2017-Oct-14 02:30N 45°25' W 083°47'0 0.0
2017-Oct-14 02:00N 45°25' W 083°47'180.5
2017-Oct-14 02:00N 45°24' W 083°48'1 1.5 290 / 81020.8 15.4 10.1
2017-Oct-14 01:22N 45°25' W 083°47'1 2.6
2017-Oct-14 01:00N 45°24' W 083°48'210.1 300 / 41019.8 15.8 10.6
2017-Oct-14 00:49N 45°25' W 083°46'1 2.6
2017-Oct-14 00:27N 45°26' W 083°47'2 4.6
2017-Oct-14 00:00N 45°24' W 083°48'2504.9 300 / 71019.8 15.7 12.2
2017-Oct-13 23:59N 45°26' W 083°47'0 0.1
2017-Oct-13 23:20N 45°26' W 083°47'0 0.2
2017-Oct-13 23:00N 45°26' W 083°47'2177.4
2017-Oct-13 23:00N 45°24' W 083°48'2 4.5 270 / 61019.4 17.0 12.3
2017-Oct-13 22:30N 45°26' W 083°47'0 0.0
2017-Oct-13 22:00N 45°26' W 083°47'2144.5
2017-Oct-13 22:00N 45°24' W 083°48'2 4.6 220 / 61018.8 17.3 12.5
2017-Oct-13 21:30N 45°26' W 083°47'0 0.0
2017-Oct-13 21:00N 45°26' W 083°47'2241.6
2017-Oct-13 21:00N 45°24' W 083°48'2 4.6 250 / 121018.8 17.4 12.4
2017-Oct-13 20:30N 45°26' W 083°47'0 0.0
2017-Oct-13 20:00N 45°26' W 083°47'2144.5
2017-Oct-13 20:00N 45°24' W 083°48'2 4.5 250 / 141018.8 17.4 12.4
2017-Oct-13 19:30N 45°26' W 083°47'0 0.0
2017-Oct-13 19:00N 45°26' W 083°47'2141.0
2017-Oct-13 19:00N 45°24' W 083°48'2 4.5 250 / 111018.8 16.7 12.6
2017-Oct-13 18:30N 45°26' W 083°47'0 0.1
2017-Oct-13 18:00N 45°26' W 083°47'2177.9
2017-Oct-13 18:00N 45°24' W 083°48'2 4.5 230 / 111018.8 16.5 12.8
2017-Oct-13 17:30N 45°26' W 083°47'0 0.0
2017-Oct-13 17:00N 45°26' W 083°47'2176.8
2017-Oct-13 17:00N 45°24' W 083°48'2 4.5 240 / 121019.4 16.1 12.7
2017-Oct-13 16:30N 45°26' W 083°47'2 3.7
2017-Oct-13 16:00N 45°28' W 083°48'2138.1
2017-Oct-13 16:00N 45°30' W 083°48'3 5.8 250 / 181019.1 16.1 16.4
2017-Oct-13 15:30N 45°32' W 083°51'5 9.2
2017-Oct-13 15:00N 45°36' W 083°55'037.3
2017-Oct-13 15:00N 45°36' W 083°54'5 9.6 220 / 151019.1 14.3 19.2
2017-Oct-13 14:28N 45°40' W 083°59'2 4.8
2017-Oct-13 14:00N 45°42' W 084°00'7 7.3 210 / 161019.1 13.4 19.0
2017-Oct-13 13:00N 45°48' W 084°06'818.8 220 / 191018.8 13.6 18.5
2017-Oct-13 12:33N 45°55' W 084°12'2 9.0
2017-Oct-13 12:23N 45°56' W 084°13'512.5
2017-Oct-13 12:00N 46°00' W 084°18'0 0.0 200 / 111018.8 13.6 16.9
2017-Oct-13 11:00N 46°00' W 084°18'0 0.0 210 / 81019.1 13.3 17.3
2017-Oct-13 10:00N 46°00' W 084°18'0 0.0 210 / 101019.1 13.2 17.2
2017-Oct-13 09:00N 46°00' W 084°18'3 5.4 200 / 81019.1 13.0 16.8
2017-Oct-13 08:29N 45°58' W 084°15'5 9.6
2017-Oct-13 08:00N 45°54' W 084°12'111.1 200 / 131019.8 13.3 18.5
2017-Oct-13 07:56N 45°54' W 084°11'7 7.5
2017-Oct-13 07:00N 45°48' W 084°06'1111.8 210 / 141020.1 13.4 19.0
2017-Oct-13 06:06N 45°42' W 083°54'1 9.5
2017-Oct-13 06:00N 45°41' W 083°53'190.0
2017-Oct-13 06:00N 45°42' W 083°54'612.1 190 / 131020.8 13.5 19.0
2017-Oct-13 05:30N 45°38' W 083°48'5 9.7
2017-Oct-13 05:00N 45°34' W 083°43'2194.3
2017-Oct-13 05:00N 45°36' W 083°42'611.9 190 / 121021.1 13.5 19.5
2017-Oct-13 04:30N 45°31' W 083°38'510.1
2017-Oct-13 04:00N 45°27' W 083°33'3364.6
2017-Oct-13 04:00N 45°30' W 083°36'917.6 190 / 101021.1 13.7 19.6
2017-Oct-13 03:30N 45°23' W 083°28'612.0
2017-Oct-13 03:00N 45°18' W 083°24'1010.4 170 / 181021.1 14.5 19.2
2017-Oct-13 02:00N 45°12' W 083°12'   170 / 171021.8 14.6 19.5

Dump ship's entire track history